Nordic — PBGD — position and weather

sailwx.info

Track history (hours):
 
Tides and Currents Weather Stations Pressure Air Temp Water Temp Dewpoint Dewpoint Depression Visibility Wind Speed Wind Dir Waves Ship Positions

Nordic

Last reported at 2018-Jan-12 01:20 UTC. Time now 2018-Jan-18 02:24 UTC.
Position N 39°56' E 017°44'.

Length 92 m; draft 4.3 m.

Type: Cargo ship. MMSI: 244868000.

Date/timePositionNaut miles runAvg speedWind from/ knotsBaromVisibWave heightAir tempDewpointWater temp
2018-Jan-12 01:20N 39°56' E 017°44'411.0
2018-Jan-12 01:00N 39°58' E 017°40'611.2
2018-Jan-12 00:30N 40°02' E 017°35'611.3
2018-Jan-12 00:00N 40°06' E 017°30'611.4
2018-Jan-11 23:30N 40°10' E 017°25'611.5
2018-Jan-11 23:00N 40°15' E 017°20'611.7
2018-Jan-11 22:30N 40°18' E 017°14'611.2
2018-Jan-11 22:01N 40°22' E 017°09'4 7.6
2018-Jan-11 21:30N 40°26' E 017°11'3 5.9
2018-Jan-11 20:58N 40°29' E 017°13'0 0.0
2018-Jan-11 20:28N 40°29' E 017°13'0 0.0
2018-Jan-11 19:55N 40°29' E 017°13'0 0.0
2018-Jan-11 19:28N 40°29' E 017°13'0 0.0
2018-Jan-11 18:58N 40°29' E 017°13'0 0.0
2018-Jan-11 18:28N 40°29' E 017°13'0 0.0
2018-Jan-11 17:58N 40°29' E 017°13'0 0.0
2018-Jan-11 17:28N 40°29' E 017°13'0 0.0
2018-Jan-11 16:58N 40°29' E 017°13'0 0.0
2018-Jan-11 16:28N 40°29' E 017°13'0 0.0
2018-Jan-11 15:58N 40°29' E 017°13'0 0.0
2018-Jan-11 15:22N 40°29' E 017°13'0 0.0
2018-Jan-11 14:58N 40°29' E 017°13'0 0.0
2018-Jan-11 14:28N 40°29' E 017°13'0 0.0
2018-Jan-11 13:58N 40°29' E 017°13'0 0.0
2018-Jan-11 13:28N 40°29' E 017°13'0 0.0
2018-Jan-11 12:58N 40°29' E 017°13'0 0.0
2018-Jan-11 12:28N 40°29' E 017°13'0 0.0
2018-Jan-11 11:58N 40°29' E 017°13'0 0.0
2018-Jan-11 11:28N 40°29' E 017°13'0 0.0
2018-Jan-11 10:58N 40°29' E 017°13'0 0.0
2018-Jan-11 10:28N 40°29' E 017°13'0 0.0
2018-Jan-11 09:58N 40°29' E 017°13'0 0.0
2018-Jan-11 09:28N 40°29' E 017°13'0 0.0
2018-Jan-11 08:58N 40°29' E 017°13'0 0.0
2018-Jan-11 08:30N 40°29' E 017°13'0 0.0
2018-Jan-11 08:00N 40°29' E 017°13'3 5.6
2018-Jan-11 07:30N 40°26' E 017°12'3 5.8
2018-Jan-11 07:00N 40°25' E 017°09'510.5
2018-Jan-11 06:30N 40°20' E 017°05'611.1
2018-Jan-11 06:00N 40°15' E 017°06'511.0
2018-Jan-11 05:30N 40°09' E 017°07'611.1
2018-Jan-11 05:00N 40°04' E 017°08'611.0
2018-Jan-11 04:30N 39°58' E 017°10'611.0
2018-Jan-11 04:00N 39°53' E 017°11'1210.8
2018-Jan-11 02:51N 39°41' E 017°13'510.5
2018-Jan-11 02:20N 39°35' E 017°13'57 9.1
2018-Jan-10 20:00N 38°39' E 016°59'7010.7
2018-Jan-10 13:30N 37°52' E 015°53'610.8
2018-Jan-10 12:59N 37°53' E 015°46'510.8
2018-Jan-10 12:30N 37°55' E 015°40'510.7
2018-Jan-10 12:00N 37°59' E 015°36'611.9
2018-Jan-10 11:30N 38°05' E 015°35'612.4
2018-Jan-10 11:00N 38°11' E 015°36'510.2
2018-Jan-10 10:29N 38°16' E 015°40'5 9.6
2018-Jan-10 10:00N 38°19' E 015°36'611.6
2018-Jan-10 09:30N 38°20' E 015°29'611.7
2018-Jan-10 09:00N 38°20' E 015°21'611.9
2018-Jan-10 08:30N 38°19' E 015°14'612.1
2018-Jan-10 08:00N 38°19' E 015°06'611.8
2018-Jan-10 07:30N 38°19' E 014°59'611.8
2018-Jan-10 06:58N 38°19' E 014°50'511.9
2018-Jan-10 06:30N 38°19' E 014°44'2311.7
2018-Jan-10 04:34N 38°19' E 014°15'111.6
2018-Jan-10 04:27N 38°19' E 014°13'511.5
2018-Jan-10 04:00N 38°19' E 014°06'611.3
2018-Jan-10 03:30N 38°18' E 013°59'611.3
2018-Jan-10 03:00N 38°18' E 013°52'611.4
2018-Jan-10 02:30N 38°18' E 013°45'611.7
2018-Jan-10 02:00N 38°18' E 013°37'611.9
2018-Jan-10 01:30N 38°18' E 013°30'611.6
2018-Jan-10 01:00N 38°18' E 013°22'611.7
2018-Jan-10 00:30N 38°18' E 013°15'611.9
2018-Jan-10 00:00N 38°17' E 013°07'611.7
2018-Jan-09 23:30N 38°17' E 012°60'611.3
2018-Jan-09 23:00N 38°17' E 012°53'611.2
2018-Jan-09 22:30N 38°17' E 012°45'  
2018-Jan-07 12:48N 36°31' W 000°55'412.0
2018-Jan-07 12:30N 36°30' W 000°59'612.0
2018-Jan-07 12:00N 36°30' W 001°07'612.0
2018-Jan-07 11:30N 36°29' W 001°14'612.2
2018-Jan-07 11:00N 36°27' W 001°22'612.3
2018-Jan-07 10:30N 36°27' W 001°29'18212.2
2018-Jan-06 19:32N 35°60' W 005°12'114.1
2018-Jan-06 19:29N 35°60' W 005°13'714.0
2018-Jan-06 19:00N 35°58' W 005°21'262 9.3
2018-Jan-05 14:55N 38°18' W 009°59'512.2
2018-Jan-05 14:30N 38°23' W 009°60'611.8
2018-Jan-05 14:00N 38°29' W 010°01'611.4
2018-Jan-05 13:30N 38°34' W 010°03'611.2
2018-Jan-05 13:00N 38°40' W 010°04'611.5
2018-Jan-05 12:30N 38°46' W 010°05'611.3
2018-Jan-05 12:00N 38°51' W 010°06'510.8
2018-Jan-05 11:30N 38°57' W 010°06'611.0
2018-Jan-05 11:00N 39°02' W 010°05'610.8
2018-Jan-05 10:29N 39°08' W 010°05'510.9
2018-Jan-05 10:00N 39°13' W 010°05'610.4
2018-Jan-05 09:25N 39°19' W 010°04'  
Track history (hours):
 
Tides and Currents Weather Stations Pressure Air Temp Water Temp Dewpoint Dewpoint Depression Visibility Wind Speed Wind Dir Waves Ship Positions

Nordic

Last reported at 2018-Jan-12 01:20 UTC. Time now 2018-Jan-18 02:24 UTC.
Position N 39°56' E 017°44'.

Length 92 m; draft 4.3 m.

Type: Cargo ship. MMSI: 244868000.

Date/timePositionNaut miles runAvg speedWind from/ knotsBaromVisibWave heightAir tempDewpointWater temp
2018-Jan-12 01:20N 39°56' E 017°44'411.0
2018-Jan-12 01:00N 39°58' E 017°40'611.2
2018-Jan-12 00:30N 40°02' E 017°35'611.3
2018-Jan-12 00:00N 40°06' E 017°30'611.4
2018-Jan-11 23:30N 40°10' E 017°25'611.5
2018-Jan-11 23:00N 40°15' E 017°20'611.7
2018-Jan-11 22:30N 40°18' E 017°14'611.2
2018-Jan-11 22:01N 40°22' E 017°09'4 7.6
2018-Jan-11 21:30N 40°26' E 017°11'3 5.9
2018-Jan-11 20:58N 40°29' E 017°13'0 0.0
2018-Jan-11 20:28N 40°29' E 017°13'0 0.0
2018-Jan-11 19:55N 40°29' E 017°13'0 0.0
2018-Jan-11 19:28N 40°29' E 017°13'0 0.0
2018-Jan-11 18:58N 40°29' E 017°13'0 0.0
2018-Jan-11 18:28N 40°29' E 017°13'0 0.0
2018-Jan-11 17:58N 40°29' E 017°13'0 0.0
2018-Jan-11 17:28N 40°29' E 017°13'0 0.0
2018-Jan-11 16:58N 40°29' E 017°13'0 0.0
2018-Jan-11 16:28N 40°29' E 017°13'0 0.0
2018-Jan-11 15:58N 40°29' E 017°13'0 0.0
2018-Jan-11 15:22N 40°29' E 017°13'0 0.0
2018-Jan-11 14:58N 40°29' E 017°13'0 0.0
2018-Jan-11 14:28N 40°29' E 017°13'0 0.0
2018-Jan-11 13:58N 40°29' E 017°13'0 0.0
2018-Jan-11 13:28N 40°29' E 017°13'0 0.0
2018-Jan-11 12:58N 40°29' E 017°13'0 0.0
2018-Jan-11 12:28N 40°29' E 017°13'0 0.0
2018-Jan-11 11:58N 40°29' E 017°13'0 0.0
2018-Jan-11 11:28N 40°29' E 017°13'0 0.0
2018-Jan-11 10:58N 40°29' E 017°13'0 0.0
2018-Jan-11 10:28N 40°29' E 017°13'0 0.0
2018-Jan-11 09:58N 40°29' E 017°13'0 0.0
2018-Jan-11 09:28N 40°29' E 017°13'0 0.0
2018-Jan-11 08:58N 40°29' E 017°13'0 0.0
2018-Jan-11 08:30N 40°29' E 017°13'0 0.0
2018-Jan-11 08:00N 40°29' E 017°13'3 5.6
2018-Jan-11 07:30N 40°26' E 017°12'3 5.8
2018-Jan-11 07:00N 40°25' E 017°09'510.5
2018-Jan-11 06:30N 40°20' E 017°05'611.1
2018-Jan-11 06:00N 40°15' E 017°06'511.0
2018-Jan-11 05:30N 40°09' E 017°07'611.1
2018-Jan-11 05:00N 40°04' E 017°08'611.0
2018-Jan-11 04:30N 39°58' E 017°10'611.0
2018-Jan-11 04:00N 39°53' E 017°11'1210.8
2018-Jan-11 02:51N 39°41' E 017°13'510.5
2018-Jan-11 02:20N 39°35' E 017°13'57 9.1
2018-Jan-10 20:00N 38°39' E 016°59'7010.7
2018-Jan-10 13:30N 37°52' E 015°53'610.8
2018-Jan-10 12:59N 37°53' E 015°46'510.8
2018-Jan-10 12:30N 37°55' E 015°40'510.7
2018-Jan-10 12:00N 37°59' E 015°36'611.9
2018-Jan-10 11:30N 38°05' E 015°35'612.4
2018-Jan-10 11:00N 38°11' E 015°36'510.2
2018-Jan-10 10:29N 38°16' E 015°40'5 9.6
2018-Jan-10 10:00N 38°19' E 015°36'611.6
2018-Jan-10 09:30N 38°20' E 015°29'611.7
2018-Jan-10 09:00N 38°20' E 015°21'611.9
2018-Jan-10 08:30N 38°19' E 015°14'612.1
2018-Jan-10 08:00N 38°19' E 015°06'611.8
2018-Jan-10 07:30N 38°19' E 014°59'611.8
2018-Jan-10 06:58N 38°19' E 014°50'511.9
2018-Jan-10 06:30N 38°19' E 014°44'2311.7
2018-Jan-10 04:34N 38°19' E 014°15'111.6
2018-Jan-10 04:27N 38°19' E 014°13'511.5
2018-Jan-10 04:00N 38°19' E 014°06'611.3
2018-Jan-10 03:30N 38°18' E 013°59'611.3
2018-Jan-10 03:00N 38°18' E 013°52'611.4
2018-Jan-10 02:30N 38°18' E 013°45'611.7
2018-Jan-10 02:00N 38°18' E 013°37'611.9
2018-Jan-10 01:30N 38°18' E 013°30'611.6
2018-Jan-10 01:00N 38°18' E 013°22'611.7
2018-Jan-10 00:30N 38°18' E 013°15'611.9
2018-Jan-10 00:00N 38°17' E 013°07'611.7
2018-Jan-09 23:30N 38°17' E 012°60'611.3
2018-Jan-09 23:00N 38°17' E 012°53'611.2
2018-Jan-09 22:30N 38°17' E 012°45'  
2018-Jan-07 12:48N 36°31' W 000°55'412.0
2018-Jan-07 12:30N 36°30' W 000°59'612.0
2018-Jan-07 12:00N 36°30' W 001°07'612.0
2018-Jan-07 11:30N 36°29' W 001°14'612.2
2018-Jan-07 11:00N 36°27' W 001°22'612.3
2018-Jan-07 10:30N 36°27' W 001°29'18212.2
2018-Jan-06 19:32N 35°60' W 005°12'114.1
2018-Jan-06 19:29N 35°60' W 005°13'714.0
2018-Jan-06 19:00N 35°58' W 005°21'262 9.3
2018-Jan-05 14:55N 38°18' W 009°59'512.2
2018-Jan-05 14:30N 38°23' W 009°60'611.8
2018-Jan-05 14:00N 38°29' W 010°01'611.4
2018-Jan-05 13:30N 38°34' W 010°03'611.2
2018-Jan-05 13:00N 38°40' W 010°04'611.5
2018-Jan-05 12:30N 38°46' W 010°05'611.3
2018-Jan-05 12:00N 38°51' W 010°06'510.8
2018-Jan-05 11:30N 38°57' W 010°06'611.0
2018-Jan-05 11:00N 39°02' W 010°05'610.8
2018-Jan-05 10:29N 39°08' W 010°05'510.9
2018-Jan-05 10:00N 39°13' W 010°05'610.4
2018-Jan-05 09:25N 39°19' W 010°04'  

Dump ship's entire track history